createdAt,value
2023-04-01T07:02:19.312Z,58.41
2023-04-01T07:03:19.496Z,55.91
2023-04-01T07:04:19.363Z,54.13
2023-04-01T07:05:19.264Z,54.94
2023-04-01T07:06:19.275Z,55.67
2023-04-01T07:07:19.272Z,50.30
2023-04-01T07:08:19.280Z,49.97
2023-04-01T07:09:19.231Z,52.22
2023-04-01T07:10:19.224Z,52.21
2023-04-01T07:11:19.211Z,52.47
2023-04-01T07:12:19.236Z,53.20
2023-04-01T07:13:19.236Z,54.85
2023-04-01T07:14:19.203Z,52.81
2023-04-01T07:15:19.194Z,54.15
2023-04-01T07:16:19.249Z,54.19
2023-04-01T07:17:19.179Z,54.40
2023-04-01T07:18:19.139Z,52.85
2023-04-01T07:19:19.205Z,54.01
2023-04-01T07:20:19.153Z,52.91
2023-04-01T07:21:19.127Z,54.36
2023-04-01T07:22:19.121Z,53.15
2023-04-01T07:23:19.140Z,56.22
2023-04-01T07:24:19.143Z,54.40
2023-04-01T07:25:19.103Z,55.58
2023-04-01T07:26:19.113Z,53.49
2023-04-01T07:27:19.118Z,56.36
2023-04-01T07:28:19.134Z,53.93
2023-04-01T07:29:19.115Z,52.39
2023-04-01T07:30:19.087Z,53.13
2023-04-01T07:31:19.148Z,52.95
2023-04-01T07:32:19.096Z,52.21
2023-04-01T07:33:19.053Z,56.28
2023-04-01T07:34:19.057Z,55.08
2023-04-01T07:35:19.072Z,56.67
2023-04-01T07:36:19.086Z,58.80
2023-04-01T07:37:19.019Z,55.43
2023-04-01T07:38:19.087Z,53.56
2023-04-01T07:39:19.046Z,52.52
2023-04-01T07:40:18.999Z,52.55
2023-04-01T07:41:19.255Z,54.29
2023-04-01T07:42:19.008Z,55.50
2023-04-01T07:43:19.014Z,54.72
2023-04-01T07:44:19.000Z,55.76
2023-04-01T07:45:19.030Z,54.82
2023-04-01T07:46:19.005Z,55.69
2023-04-01T07:47:19.077Z,54.52
2023-04-01T07:48:18.948Z,53.53
2023-04-01T07:49:18.936Z,53.28
2023-04-01T07:50:18.929Z,54.17
2023-04-01T07:51:18.936Z,53.40
2023-04-01T07:52:18.963Z,54.56
2023-04-01T07:53:18.940Z,55.14
2023-04-01T07:54:18.905Z,52.98
2023-04-01T07:55:18.903Z,55.11
2023-04-01T07:56:19.898Z,54.60
2023-04-01T07:57:18.947Z,53.61
2023-04-01T07:58:18.899Z,53.59
2023-04-01T07:59:18.905Z,54.19
2023-04-01T08:00:18.869Z,55.66
2023-04-01T08:01:18.894Z,52.77
2023-04-01T08:02:18.956Z,53.57
2023-04-01T08:03:19.020Z,54.28
2023-04-01T08:04:18.956Z,55.13
2023-04-01T08:05:18.824Z,55.51
2023-04-01T08:06:18.829Z,53.57
2023-04-01T08:07:18.828Z,53.68
2023-04-01T08:08:18.819Z,54.16
2023-04-01T08:09:18.832Z,56.22
2023-04-01T08:10:18.799Z,53.89
2023-04-01T08:11:18.754Z,53.53
2023-04-01T08:12:18.795Z,53.49
2023-04-01T08:13:18.822Z,55.07
2023-04-01T08:14:18.818Z,54.12
2023-04-01T08:15:18.761Z,53.66
2023-04-01T08:16:18.828Z,56.03
2023-04-01T08:17:18.760Z,55.80
2023-04-01T08:18:18.731Z,54.42
2023-04-01T08:19:18.740Z,52.49
2023-04-01T08:20:18.774Z,53.22
2023-04-01T08:21:18.728Z,55.29
2023-04-01T08:22:18.724Z,52.37
2023-04-01T08:23:18.720Z,56.72
2023-04-01T08:24:20.714Z,53.22
2023-04-01T08:25:18.679Z,52.95
2023-04-01T08:26:18.685Z,54.06
2023-04-01T08:27:18.704Z,54.29
2023-04-01T08:28:18.674Z,54.48
2023-04-01T08:29:18.652Z,54.54
2023-04-01T08:30:18.663Z,55.10
2023-04-01T08:31:18.662Z,55.15
2023-04-01T08:32:18.650Z,54.65
2023-04-01T08:33:18.623Z,53.83
2023-04-01T08:34:18.679Z,54.46
2023-04-01T08:35:18.657Z,51.85
2023-04-01T08:36:18.668Z,53.55
2023-04-01T08:37:18.805Z,55.64
2023-04-01T08:38:18.583Z,58.43
2023-04-01T08:39:18.642Z,55.09
2023-04-01T08:40:18.606Z,51.52
2023-04-01T08:41:18.547Z,52.77
2023-04-01T08:42:18.578Z,52.45
2023-04-01T08:43:18.573Z,56.20
2023-04-01T08:44:18.616Z,54.69
2023-04-01T08:45:18.536Z,53.44
2023-04-01T08:46:18.610Z,53.38
2023-04-01T08:47:18.534Z,54.21
2023-04-01T08:48:18.531Z,55.82
2023-04-01T08:49:18.537Z,54.35
2023-04-01T08:50:18.558Z,53.90
2023-04-01T08:51:18.564Z,52.28
2023-04-01T08:52:18.497Z,52.10
2023-04-01T08:53:18.474Z,53.85
2023-04-01T08:54:18.490Z,54.35
2023-04-01T08:55:18.488Z,53.35
2023-04-01T08:56:18.530Z,53.24
2023-04-01T08:57:18.625Z,54.82
2023-04-01T08:58:18.466Z,53.05
2023-04-01T08:59:18.507Z,53.68
2023-04-01T09:00:18.443Z,54.27
2023-04-01T09:01:18.835Z,54.77
2023-04-01T09:02:18.538Z,59.52
2023-04-01T09:03:18.525Z,53.39
2023-04-01T09:04:19.466Z,54.13
2023-04-01T09:05:18.498Z,53.08
2023-04-01T09:06:18.523Z,55.37
2023-04-01T09:07:18.493Z,53.61
2023-04-01T09:08:18.399Z,51.80
2023-04-01T09:09:18.520Z,54.04
2023-04-01T09:10:18.498Z,54.67
2023-04-01T09:11:18.506Z,52.29
2023-04-01T09:12:18.341Z,55.43
2023-04-01T09:13:18.360Z,56.25
2023-04-01T09:14:18.387Z,56.80
2023-04-01T09:15:18.325Z,53.06
2023-04-01T09:16:18.372Z,53.12
2023-04-01T09:17:18.339Z,59.41
2023-04-01T09:18:18.304Z,60.74
2023-04-01T09:19:18.335Z,56.28
2023-04-01T09:20:18.338Z,59.19
2023-04-01T09:21:18.308Z,58.79
2023-04-01T09:22:18.319Z,58.52
2023-04-01T09:23:18.300Z,63.80
2023-04-01T09:24:18.273Z,60.76
2023-04-01T09:25:18.259Z,62.10
2023-04-01T09:26:18.270Z,63.32
2023-04-01T09:27:18.269Z,65.23
2023-04-01T09:28:18.265Z,63.05
2023-04-01T09:29:18.280Z,60.90
2023-04-01T09:30:18.292Z,62.52
2023-04-01T09:31:18.277Z,59.81
2023-04-01T09:32:18.224Z,58.19
2023-04-01T09:33:18.210Z,57.06
2023-04-01T09:34:18.244Z,54.75
2023-04-01T09:35:18.213Z,51.99
2023-04-01T09:36:18.268Z,52.95
2023-04-01T09:37:18.282Z,54.18
2023-04-01T09:38:18.211Z,52.08
2023-04-01T09:39:18.190Z,53.90
2023-04-01T09:40:18.214Z,55.05
2023-04-01T09:41:18.141Z,52.88
2023-04-01T09:42:18.186Z,52.74
2023-04-01T09:43:18.150Z,53.97
2023-04-01T09:44:18.146Z,52.97
2023-04-01T09:45:18.174Z,53.30
2023-04-01T09:46:18.167Z,54.12
2023-04-01T09:47:18.115Z,53.94
2023-04-01T09:48:18.103Z,53.83
2023-04-01T09:49:18.142Z,56.10
2023-04-01T09:50:18.216Z,55.80
2023-04-01T09:51:18.092Z,54.35
2023-04-01T09:52:18.098Z,54.22
2023-04-01T09:53:18.058Z,52.43
2023-04-01T09:54:18.065Z,53.55
2023-04-01T09:55:18.086Z,53.03
2023-04-01T09:56:18.090Z,53.94
2023-04-01T09:57:18.073Z,52.90
2023-04-01T09:58:18.072Z,54.84
2023-04-01T09:59:18.033Z,56.12
2023-04-01T10:00:18.053Z,54.93
2023-04-01T10:01:18.065Z,54.57
2023-04-01T10:02:18.027Z,53.16
2023-04-01T10:03:18.030Z,53.80
2023-04-01T10:04:18.009Z,57.49
2023-04-01T10:05:18.046Z,57.51
2023-04-01T10:06:17.965Z,56.71
2023-04-01T10:07:17.962Z,57.06
2023-04-01T10:08:17.962Z,55.65
2023-04-01T10:09:17.966Z,57.26
2023-04-01T10:10:18.066Z,56.51
2023-04-01T10:11:17.931Z,55.20
2023-04-01T10:12:18.018Z,53.15
2023-04-01T10:13:17.911Z,52.77
2023-04-01T10:14:17.919Z,53.33
2023-04-01T10:15:18.071Z,53.97
2023-04-01T10:16:18.030Z,59.23
2023-04-01T10:17:18.049Z,51.19
2023-04-01T10:18:18.140Z,55.71
2023-04-01T10:19:17.996Z,54.99
2023-04-01T10:20:18.012Z,54.41
2023-04-01T10:21:17.892Z,52.98
2023-04-01T10:22:17.961Z,54.05
2023-04-01T10:23:18.031Z,53.57
2023-04-01T10:24:17.953Z,51.34
2023-04-01T10:25:18.134Z,52.52
2023-04-01T10:26:17.890Z,52.47
2023-04-01T10:27:18.004Z,50.85
2023-04-01T10:28:17.923Z,53.11
2023-04-01T10:29:20.201Z,56.50
2023-04-01T10:30:17.929Z,58.28
2023-04-01T10:31:17.948Z,59.89
2023-04-01T10:32:17.953Z,58.84
2023-04-01T10:33:17.953Z,57.82
2023-04-01T10:34:18.295Z,60.47
2023-04-01T10:35:17.987Z,60.63
2023-04-01T10:36:18.746Z,59.49
2023-04-01T10:37:18.138Z,59.00
2023-04-01T10:38:17.938Z,58.41
2023-04-01T10:39:17.930Z,58.52
2023-04-01T10:40:17.947Z,55.86
2023-04-01T10:41:17.934Z,61.37
2023-04-01T10:42:17.817Z,60.11
2023-04-01T10:43:17.882Z,56.75
2023-04-01T10:44:18.024Z,55.04
2023-04-01T10:45:17.887Z,59.42
2023-04-01T10:46:17.935Z,59.49
2023-04-01T10:47:17.827Z,60.79
2023-04-01T10:48:17.804Z,61.42
2023-04-01T10:49:18.189Z,62.94
2023-04-01T10:50:18.007Z,64.62
2023-04-01T10:51:18.195Z,61.32
2023-04-01T10:52:18.097Z,56.96
2023-04-01T10:53:17.749Z,63.65
2023-04-01T10:54:17.715Z,66.20
2023-04-01T10:55:17.710Z,66.42
2023-04-01T10:56:17.738Z,61.99
2023-04-01T10:57:17.740Z,57.80
2023-04-01T10:58:17.699Z,56.60
2023-04-01T10:59:17.578Z,56.88
2023-04-01T11:00:17.624Z,56.06
2023-04-01T11:01:17.643Z,53.15
2023-04-01T11:02:17.681Z,58.70
2023-04-01T11:03:17.691Z,57.49
2023-04-01T11:04:17.566Z,59.38
2023-04-01T11:05:20.160Z,53.49
2023-04-01T11:06:17.541Z,56.03
2023-04-01T11:07:17.528Z,53.95
2023-04-01T11:08:17.543Z,52.88
2023-04-01T11:09:17.512Z,53.62
2023-04-01T11:10:17.566Z,52.64
2023-04-01T11:11:17.502Z,53.93
2023-04-01T11:12:17.531Z,52.26
2023-04-01T11:13:17.544Z,52.13
2023-04-01T11:14:17.530Z,53.08
2023-04-01T11:15:17.509Z,54.91
2023-04-01T11:16:18.438Z,53.03
2023-04-01T11:17:18.482Z,55.36
2023-04-01T11:18:17.459Z,53.15
2023-04-01T11:19:17.455Z,52.24
2023-04-01T11:20:17.444Z,53.70
2023-04-01T11:21:17.450Z,55.23
2023-04-01T11:22:17.443Z,56.03
2023-04-01T11:23:17.428Z,55.16
2023-04-01T11:24:17.461Z,53.57
2023-04-01T11:25:17.424Z,55.10
2023-04-01T11:26:17.431Z,54.72
2023-04-01T11:27:17.460Z,55.19
2023-04-01T11:28:17.396Z,54.28
2023-04-01T11:29:18.378Z,54.99
2023-04-01T11:30:17.386Z,54.62
2023-04-01T11:31:17.413Z,53.65
2023-04-01T11:32:17.989Z,54.22
2023-04-01T11:33:19.419Z,53.73
2023-04-01T11:34:17.369Z,53.64
2023-04-01T11:35:17.351Z,52.00
2023-04-01T11:36:17.415Z,54.63
2023-04-01T11:37:17.372Z,54.72
2023-04-01T11:38:17.312Z,52.04
2023-04-01T11:39:17.325Z,51.80
2023-04-01T11:40:17.324Z,53.70
2023-04-01T11:41:17.302Z,53.03
2023-04-01T11:42:17.346Z,53.34
2023-04-01T11:43:26.162Z,52.62
2023-04-01T11:44:19.293Z,53.72
2023-04-01T11:45:17.285Z,54.55
2023-04-01T11:46:17.296Z,52.67
2023-04-01T11:47:17.263Z,52.13
2023-04-01T11:48:17.249Z,51.97
2023-04-01T11:49:17.227Z,52.33
2023-04-01T11:50:17.261Z,54.73
2023-04-01T11:51:17.302Z,56.26
2023-04-01T11:52:17.233Z,53.62
2023-04-01T11:53:17.225Z,54.67
2023-04-01T11:54:17.216Z,56.57
2023-04-01T11:55:17.240Z,57.34
2023-04-01T11:56:17.207Z,54.93
2023-04-01T11:57:17.235Z,55.14
2023-04-01T11:58:17.174Z,55.83
2023-04-01T11:59:18.185Z,59.17
2023-04-01T12:00:17.210Z,58.74
2023-04-01T12:01:17.152Z,58.60
2023-04-01T12:02:19.290Z,59.96
2023-04-01T12:03:17.409Z,57.90
2023-04-01T12:04:17.196Z,57.07
2023-04-01T12:05:17.199Z,56.72
2023-04-01T12:06:17.187Z,55.37
2023-04-01T12:07:17.127Z,56.06
2023-04-01T12:08:17.110Z,55.71
2023-04-01T12:09:17.090Z,56.37
2023-04-01T12:10:17.115Z,56.87
2023-04-01T12:11:17.112Z,56.15
2023-04-01T12:12:17.132Z,58.77
2023-04-01T12:13:17.084Z,57.44
2023-04-01T12:14:17.078Z,57.28
2023-04-01T12:15:17.086Z,57.95
2023-04-01T12:16:17.067Z,56.66
2023-04-01T12:17:17.962Z,54.54
2023-04-01T12:18:18.188Z,56.31
2023-04-01T12:19:17.098Z,55.14
2023-04-01T12:20:17.047Z,53.65
2023-04-01T12:21:17.033Z,52.48
2023-04-01T12:22:17.042Z,52.76
2023-04-01T12:23:16.994Z,52.38
2023-04-01T12:24:17.035Z,53.61
2023-04-01T12:25:17.018Z,54.66
2023-04-01T12:26:17.010Z,52.73
2023-04-01T12:27:16.994Z,53.24
2023-04-01T12:28:16.973Z,53.53
2023-04-01T12:29:17.572Z,53.74
2023-04-01T12:30:16.991Z,54.44
2023-04-01T12:31:16.954Z,55.01
2023-04-01T12:32:17.735Z,54.74
2023-04-01T12:33:16.957Z,55.49
2023-04-01T12:34:16.937Z,55.67
2023-04-01T12:35:16.953Z,55.54
2023-04-01T12:36:16.906Z,57.26
2023-04-01T12:37:16.931Z,57.62
2023-04-01T12:38:19.733Z,55.77
2023-04-01T12:39:16.895Z,54.55
2023-04-01T12:40:16.921Z,55.41
2023-04-01T12:41:16.890Z,57.67
2023-04-01T12:42:16.860Z,56.39
2023-04-01T12:43:16.922Z,55.35
2023-04-01T12:44:16.888Z,55.53
2023-04-01T12:45:16.877Z,58.02
2023-04-01T12:46:16.884Z,57.87
2023-04-01T12:47:16.852Z,53.99
2023-04-01T12:48:16.837Z,53.05
2023-04-01T12:49:16.822Z,52.36
2023-04-01T12:50:16.839Z,53.52
2023-04-01T12:51:16.803Z,54.08
2023-04-01T12:52:16.795Z,52.82
2023-04-01T12:53:16.773Z,52.40
2023-04-01T12:54:17.582Z,53.23
2023-04-01T12:55:16.807Z,54.24
2023-04-01T12:56:16.820Z,54.57
2023-04-01T12:57:16.914Z,53.17
2023-04-01T12:58:16.754Z,52.53
2023-04-01T12:59:16.757Z,53.43
2023-04-01T13:00:16.757Z,53.34
2023-04-01T21:03:11.528Z,48.63
2023-04-01T21:04:11.652Z,46.31
2023-04-01T21:05:12.507Z,46.22
2023-04-01T21:06:11.452Z,47.10
2023-04-01T21:07:11.465Z,47.83
2023-04-01T21:08:11.444Z,47.12
2023-04-01T21:09:11.454Z,45.95
2023-04-01T21:10:11.422Z,45.52
2023-04-01T21:11:11.417Z,46.87
2023-04-01T21:12:11.405Z,46.42
2023-04-01T21:13:11.453Z,47.12
2023-04-01T21:14:11.396Z,48.12
2023-04-01T21:15:12.365Z,46.30
2023-04-01T21:16:11.401Z,46.47
2023-04-01T21:17:11.527Z,46.24
2023-04-01T21:18:11.351Z,45.73
2023-04-01T21:19:11.352Z,45.97
2023-04-01T21:20:11.354Z,46.05
2023-04-01T21:21:11.340Z,47.64
2023-04-01T21:22:11.321Z,47.53
2023-04-01T21:23:11.343Z,46.90
2023-04-01T21:24:11.361Z,48.26
2023-04-01T21:25:11.322Z,48.31
2023-04-01T21:26:11.308Z,47.99
2023-04-01T21:27:11.277Z,47.35
2023-04-01T21:28:11.321Z,46.83
2023-04-01T21:29:11.285Z,47.25
2023-04-01T21:30:11.269Z,46.58
2023-04-01T21:31:11.316Z,46.37
2023-04-01T21:32:11.251Z,47.23
2023-04-01T21:33:11.329Z,46.64
2023-04-01T21:34:11.264Z,46.33
2023-04-01T21:35:11.353Z,46.02
2023-04-01T21:36:11.281Z,46.50
2023-04-01T21:37:11.223Z,46.43
2023-04-01T21:38:11.247Z,45.45
2023-04-01T21:39:11.219Z,45.66
2023-04-01T21:40:14.062Z,45.67
2023-04-01T21:41:11.203Z,45.70
2023-04-01T21:42:11.173Z,45.69
2023-04-01T21:43:11.226Z,46.92
2023-04-01T21:44:11.292Z,45.68
2023-04-01T21:45:11.175Z,44.39
2023-04-01T21:46:11.196Z,45.30
2023-04-01T21:47:11.137Z,44.95
2023-04-01T21:48:11.311Z,45.17
2023-04-01T21:49:11.713Z,45.48
2023-04-01T21:50:12.259Z,45.26
2023-04-01T21:51:11.104Z,46.68
2023-04-01T21:52:11.112Z,48.03
2023-04-01T21:53:11.243Z,48.35
2023-04-01T21:54:11.125Z,48.83
2023-04-01T21:55:11.080Z,48.52
2023-04-01T21:56:11.100Z,48.55
2023-04-01T21:57:11.131Z,47.83
2023-04-01T21:58:11.083Z,48.36
2023-04-01T21:59:11.130Z,47.41
2023-04-01T22:00:11.058Z,45.66
2023-04-01T22:01:11.046Z,46.19
2023-04-01T22:02:11.025Z,45.63
2023-04-01T22:03:23.801Z,45.81
2023-04-01T22:04:13.041Z,47.10
2023-04-01T22:05:11.053Z,47.54
2023-04-01T22:06:10.986Z,46.90
2023-04-01T22:07:12.006Z,48.53
2023-04-01T22:08:11.016Z,50.03
2023-04-01T22:09:11.002Z,49.24
2023-04-01T22:10:10.965Z,48.28
2023-04-01T22:11:10.940Z,47.87
2023-04-01T22:12:10.934Z,47.78
2023-04-01T22:13:10.994Z,48.04
2023-04-01T22:14:10.957Z,48.79
2023-04-01T22:15:10.955Z,48.02
2023-04-01T22:16:10.993Z,47.18
2023-04-01T22:17:10.924Z,47.24
2023-04-01T22:18:10.961Z,46.09
2023-04-01T22:19:10.942Z,45.93
2023-04-01T22:20:10.912Z,46.51
2023-04-01T22:21:10.911Z,46.67
2023-04-01T22:22:10.888Z,46.80
2023-04-01T22:23:10.889Z,47.29
2023-04-01T22:24:10.886Z,47.94
2023-04-01T22:25:10.898Z,47.19
2023-04-01T22:26:10.869Z,47.16
2023-04-01T22:27:10.890Z,46.87
2023-04-01T22:28:10.848Z,47.06
2023-04-01T22:29:10.880Z,47.03
2023-04-01T22:30:10.846Z,46.61
2023-04-01T22:31:10.818Z,46.18
2023-04-01T22:32:10.887Z,46.37
2023-04-01T22:33:10.807Z,46.75
2023-04-01T22:34:10.866Z,46.91
2023-04-01T22:35:10.815Z,47.70
2023-04-01T22:36:10.819Z,47.73
2023-04-01T22:37:10.791Z,47.69
2023-04-01T22:38:10.784Z,48.62
2023-04-01T22:39:10.783Z,48.49
2023-04-01T22:40:10.756Z,48.56
2023-04-01T22:41:10.730Z,48.81
2023-04-01T22:42:10.747Z,48.01
2023-04-01T22:43:10.782Z,48.33
2023-04-01T22:44:10.746Z,48.01
2023-04-01T22:45:10.725Z,48.10
2023-04-01T22:46:10.822Z,47.68
2023-04-01T22:47:10.756Z,47.51
2023-04-01T22:48:10.684Z,47.75
2023-04-01T22:49:10.705Z,47.17
2023-04-01T22:50:10.714Z,47.08
2023-04-01T22:51:10.708Z,46.19
2023-04-01T22:52:10.696Z,46.46
2023-04-01T22:53:10.684Z,46.72
2023-04-01T22:54:10.674Z,45.84
2023-04-01T22:55:10.641Z,46.19
2023-04-01T22:56:10.628Z,47.10
2023-04-01T22:57:10.688Z,46.75
2023-04-01T22:58:10.626Z,47.08
2023-04-01T22:59:10.621Z,47.43
2023-04-01T23:00:10.632Z,47.66
2023-04-01T23:01:10.661Z,47.06
2023-04-01T23:02:10.645Z,47.08
2023-04-01T23:03:10.583Z,46.83
2023-04-01T23:04:10.659Z,47.72
2023-04-01T23:05:10.559Z,47.26
2023-04-01T23:06:10.562Z,47.65
2023-04-01T23:07:10.601Z,47.96
2023-04-01T23:08:10.558Z,47.15
2023-04-01T23:09:10.582Z,47.32
2023-04-01T23:10:10.531Z,50.22
2023-04-01T23:11:10.533Z,52.31
2023-04-01T23:12:10.523Z,50.48
2023-04-01T23:13:10.517Z,49.84
2023-04-01T23:14:10.514Z,48.81
2023-04-01T23:15:10.505Z,48.06
2023-04-01T23:16:10.578Z,46.06
2023-04-01T23:17:10.477Z,45.61
2023-04-01T23:18:10.480Z,45.91
2023-04-01T23:19:10.498Z,47.24
2023-04-01T23:20:10.465Z,46.16
2023-04-01T23:21:10.479Z,45.01
2023-04-01T23:22:10.469Z,45.39
2023-04-01T23:23:10.467Z,46.17
2023-04-01T23:24:10.439Z,45.75
2023-04-01T23:25:10.438Z,45.92
2023-04-01T23:26:10.440Z,44.93
2023-04-01T23:27:10.406Z,44.75
2023-04-01T23:28:10.417Z,46.22
2023-04-01T23:29:10.409Z,44.90
2023-04-01T23:30:10.394Z,45.05
2023-04-01T23:31:10.432Z,45.57
2023-04-01T23:32:10.384Z,45.77
2023-04-01T23:33:10.359Z,44.84
2023-04-01T23:34:10.368Z,44.86
2023-04-01T23:35:10.343Z,45.30
2023-04-01T23:36:10.370Z,46.07
2023-04-01T23:37:10.321Z,45.07
2023-04-01T23:38:10.352Z,46.02
2023-04-01T23:39:10.322Z,45.54
2023-04-01T23:40:10.350Z,44.80
2023-04-01T23:41:10.334Z,45.49
2023-04-01T23:42:10.294Z,45.24
2023-04-01T23:43:10.277Z,45.39
2023-04-01T23:44:10.356Z,46.73
2023-04-01T23:45:10.294Z,45.80
2023-04-01T23:46:10.286Z,46.24
2023-04-01T23:47:10.296Z,46.04
2023-04-01T23:48:10.257Z,46.37
2023-04-01T23:49:10.290Z,46.34
2023-04-01T23:50:10.244Z,46.49
2023-04-01T23:51:10.230Z,45.66
2023-04-01T23:52:10.222Z,45.62
2023-04-01T23:53:11.248Z,46.41
2023-04-01T23:54:10.221Z,46.67
2023-04-01T23:55:10.201Z,46.32
2023-04-01T23:56:10.188Z,46.57
2023-04-01T23:57:10.262Z,46.38
2023-04-01T23:58:10.216Z,46.14
2023-04-01T23:59:10.221Z,45.77
